Time;durP1;ratioP1;P1;durP2;ratioP2;P2;SDS_P1;SDS_P2;PMS_P1;PMS_P2;Temp;Humidity;BMP_temperature;BMP_pressure;BME280_temperature;BME280_humidity;BME280_pressure;Samples;Min_cycle;Max_cycle;Signal;HPM_P1;HPM_P2
2021/05/18 00:00:19;;;;;;;2.85;0.98;;;11.70;99.90;;;;;;5111478;28;20395;-61
2021/05/18 00:02:44;;;;;;;2.15;0.80;;;11.70;99.90;;;;;;5112287;28;20024;-61
2021/05/18 00:05:12;;;;;;;1.73;0.85;;;11.70;99.90;;;;;;5112763;28;20020;-61
2021/05/18 00:07:41;;;;;;;1.98;1.00;;;11.80;99.90;;;;;;5112183;28;20055;-63
2021/05/18 00:12:52;;;;;;;2.55;1.20;;;11.80;99.90;;;;;;5112147;28;20277;-61
2021/05/18 00:15:20;;;;;;;2.65;0.82;;;11.80;99.90;;;;;;5112365;28;20070;-61
2021/05/18 00:17:46;;;;;;;2.50;1.02;;;11.80;99.90;;;;;;5111821;28;20054;-61
2021/05/18 00:20:15;;;;;;;2.35;0.93;;;11.70;99.90;;;;;;5110764;28;20031;-63
2021/05/18 00:22:41;;;;;;;2.63;0.88;;;11.70;99.90;;;;;;5111693;28;20461;-61
2021/05/18 00:25:07;;;;;;;1.77;1.13;;;11.80;99.90;;;;;;5111295;28;20024;-61
2021/05/18 00:27:33;;;;;;;1.35;0.90;;;11.70;99.90;;;;;;5109963;28;20579;-74
2021/05/18 00:29:59;;;;;;;2.72;1.08;;;11.80;99.90;;;;;;5112577;28;20047;-62
2021/05/18 00:32:25;;;;;;;2.28;1.08;;;11.80;99.90;;;;;;5110921;28;20051;-62
2021/05/18 00:34:56;;;;;;;1.27;0.70;;;11.80;99.90;;;;;;5111504;28;20111;-62
2021/05/18 00:37:24;;;;;;;3.58;1.38;;;11.80;99.90;;;;;;5110963;28;20020;-61
2021/05/18 00:39:51;;;;;;;3.90;0.93;;;11.80;99.90;;;;;;5111807;28;20027;-61
2021/05/18 00:42:22;;;;;;;2.05;1.02;;;11.80;99.90;;;;;;5110451;28;20110;-61
2021/05/18 00:44:49;;;;;;;2.63;1.08;;;11.80;99.90;;;;;;5109794;28;20123;-61
2021/05/18 00:47:15;;;;;;;7.28;2.40;;;11.90;99.90;;;;;;5110019;28;20131;-61
2021/05/18 00:49:41;;;;;;;3.20;0.90;;;11.80;99.90;;;;;;5111582;28;20067;-61
2021/05/18 00:52:07;;;;;;;2.85;0.82;;;11.80;99.90;;;;;;5111991;28;20111;-61
2021/05/18 00:54:42;;;;;;;1.00;0.80;;;11.80;99.90;;;;;;5109971;28;20042;-62
2021/05/18 00:59:54;;;;;;;5.78;1.95;;;11.80;99.90;;;;;;5111220;28;20112;-61
2021/05/18 01:02:24;;;;;;;3.00;0.75;;;11.90;99.90;;;;;;5110021;28;20055;-61
2021/05/18 01:04:56;;;;;;;4.18;1.20;;;11.90;99.90;;;;;;5110834;28;20061;-61
2021/05/18 01:07:22;;;;;;;3.70;0.93;;;11.90;99.90;;;;;;5110191;28;20020;-61
2021/05/18 01:09:48;;;;;;;5.28;1.02;;;11.90;99.90;;;;;;5111354;28;20031;-61
2021/05/18 01:12:14;;;;;;;1.77;0.93;;;11.90;99.90;;;;;;5111247;28;20425;-61
2021/05/18 01:14:39;;;;;;;3.95;1.20;;;11.80;99.90;;;;;;5109668;28;20110;-61
2021/05/18 01:17:05;;;;;;;2.80;0.90;;;11.90;99.90;;;;;;5109723;28;20134;-61
2021/05/18 01:19:31;;;;;;;2.00;0.90;;;11.90;99.90;;;;;;5109820;28;20031;-60
2021/05/18 01:22:00;;;;;;;1.50;1.27;;;11.80;99.90;;;;;;5109281;28;20156;-61
2021/05/18 01:24:26;;;;;;;2.25;1.00;;;11.80;99.90;;;;;;5111208;28;20019;-60
2021/05/18 01:26:51;;;;;;;1.58;0.95;;;11.80;99.90;;;;;;5109109;28;20546;-60
2021/05/18 01:29:19;;;;;;;4.30;0.80;;;11.90;99.90;;;;;;5111283;28;20072;-60
2021/05/18 01:31:46;;;;;;;4.78;1.15;;;11.80;99.90;;;;;;5109294;28;20028;-62
2021/05/18 01:34:13;;;;;;;4.05;1.35;;;11.70;99.90;;;;;;5111300;28;20433;-61
2021/05/18 01:36:39;;;;;;;2.25;1.27;;;11.70;99.90;;;;;;5110314;28;20146;-61
2021/05/18 01:44:30;;;;;;;2.55;1.25;;;11.70;99.90;;;;;;5111159;28;20035;-61
2021/05/18 01:46:56;;;;;;;1.48;0.82;;;11.70;99.90;;;;;;5108653;28;20074;-60
2021/05/18 01:49:22;;;;;;;1.35;0.85;;;11.80;99.90;;;;;;5110579;28;20066;-60
2021/05/18 01:51:51;;;;;;;2.17;0.90;;;11.70;99.90;;;;;;5108718;28;20072;-61
2021/05/18 01:54:23;;;;;;;5.00;1.50;;;11.70;99.90;;;;;;5109319;28;20486;-61
2021/05/18 01:56:53;;;;;;;3.65;1.30;;;11.70;99.90;;;;;;5108728;28;20028;-61
2021/05/18 01:59:24;;;;;;;3.58;1.10;;;11.70;99.90;;;;;;5109046;28;20081;-62
2021/05/18 02:01:53;;;;;;;2.22;1.02;;;11.70;99.90;;;;;;5108655;28;20024;-60
2021/05/18 02:04:47;;;;;;;4.07;2.42;;;11.70;99.90;;;;;;5109160;28;20051;-61
2021/05/18 02:07:19;;;;;;;3.15;1.45;;;11.70;99.90;;;;;;5104741;28;20103;-60
2021/05/18 02:09:46;;;;;;;4.95;1.38;;;11.60;99.90;;;;;;5109635;28;20024;-61
2021/05/18 02:12:11;;;;;;;1.60;1.00;;;11.60;99.90;;;;;;5110299;28;20040;-61
2021/05/18 02:14:39;;;;;;;3.88;1.38;;;11.60;99.90;;;;;;5110651;28;20024;-60
2021/05/18 02:20:09;;;;;;;5.13;1.45;;;11.60;99.90;;;;;;5110358;28;20047;-61
2021/05/18 02:25:21;;;;;;;2.13;1.20;;;11.60;99.90;;;;;;5110452;28;20039;-61
2021/05/18 02:27:47;;;;;;;;;;;11.60;99.90;;;;;;5110742;28;20055;-60
2021/05/18 02:30:15;;;;;;;4.40;1.52;;;11.50;99.90;;;;;;5110411;28;20458;-61
2021/05/18 02:32:40;;;;;;;3.58;1.60;;;11.50;99.90;;;;;;5110040;28;20058;-75
2021/05/18 02:35:09;;;;;;;3.85;1.23;;;11.50;99.90;;;;;;5110048;28;20024;-61
2021/05/18 02:37:37;;;;;;;5.50;1.30;;;11.40;99.90;;;;;;5110196;28;20054;-61
2021/05/18 02:40:05;;;;;;;2.40;1.50;;;11.50;99.90;;;;;;5109450;28;20432;-60
2021/05/18 02:42:31;;;;;;;2.80;1.27;;;11.50;99.90;;;;;;5108698;28;20034;-61
2021/05/18 02:45:11;;;;;;;3.58;1.27;;;11.50;99.90;;;;;;5109374;28;20032;-61
2021/05/18 02:50:21;;;;;;;3.72;0.95;;;11.30;99.90;;;;;;5111221;28;20160;-61
2021/05/18 02:52:46;;;;;;;3.10;1.35;;;11.30;99.90;;;;;;5113396;28;20102;-61
2021/05/18 02:55:19;;;;;;;3.65;1.40;;;11.30;99.90;;;;;;5112978;28;20428;-61
2021/05/18 02:57:47;;;;;;;3.65;1.48;;;11.30;99.90;;;;;;5112176;28;20040;-61
2021/05/18 03:00:16;;;;;;;3.13;1.38;;;11.30;99.90;;;;;;5114237;28;20024;-60
2021/05/18 03:02:42;;;;;;;2.35;1.40;;;11.20;99.90;;;;;;5113737;28;20019;-73
2021/05/18 03:05:09;;;;;;;3.00;0.98;;;11.20;99.90;;;;;;5112591;28;20053;-60
2021/05/18 03:07:35;;;;;;;1.98;1.10;;;11.10;99.90;;;;;;5112702;28;20337;-61
2021/05/18 03:10:02;;;;;;;5.57;1.25;;;11.10;99.90;;;;;;5113573;28;20023;-62
2021/05/18 03:12:28;;;;;;;1.33;1.17;;;11.10;99.90;;;;;;5114269;28;20016;-61
2021/05/18 03:14:54;;;;;;;3.88;1.10;;;11.10;99.90;;;;;;5113252;28;20112;-62
2021/05/18 03:17:20;;;;;;;4.10;1.20;;;11.10;99.90;;;;;;5113686;28;20322;-62
2021/05/18 03:19:45;;;;;;;3.25;1.15;;;11.10;99.90;;;;;;5112751;28;20117;-63
2021/05/18 03:22:11;;;;;;;1.45;1.13;;;11.10;99.90;;;;;;5113900;28;20429;-61
2021/05/18 03:24:41;;;;;;;3.20;1.42;;;11.10;99.90;;;;;;5113671;28;20053;-61
2021/05/18 03:27:08;;;;;;;2.03;0.80;;;11.10;99.90;;;;;;5111588;28;20064;-58
2021/05/18 03:29:34;;;;;;;2.58;1.30;;;11.20;99.90;;;;;;5112181;28;20047;-61
2021/05/18 03:34:45;;;;;;;3.97;1.20;;;11.10;99.90;;;;;;5112950;28;20390;-68
2021/05/18 03:37:17;;;;;;;3.85;1.40;;;11.10;99.90;;;;;;5111788;28;20187;-61
2021/05/18 03:39:46;;;;;;;4.25;1.10;;;11.10;99.90;;;;;;5111808;28;20028;-60
2021/05/18 03:42:21;;;;;;;4.20;1.13;;;11.10;99.90;;;;;;5113436;28;20035;-61
2021/05/18 03:58:52;;;;;;;1.73;1.05;;;11.10;99.90;;;;;;5112913;28;20043;-61
2021/05/18 04:17:36;;;;;;;12.93;1.38;;;11.30;99.90;;;;;;5112336;28;20214;-61
2021/05/18 04:22:36;;;;;;;1.42;1.00;;;11.30;99.90;;;;;;5112456;28;20165;-61
2021/05/18 04:39:11;;;;;;;2.05;0.88;;;11.30;99.90;;;;;;5111777;28;20077;-61
2021/05/18 04:52:19;;;;;;;3.33;1.13;;;11.40;99.90;;;;;;5111236;28;20023;-62
2021/05/18 05:10:24;;;;;;;3.33;1.20;;;11.30;99.90;;;;;;5111759;28;20031;-61
2021/05/18 05:15:31;;;;;;;2.47;0.95;;;11.40;99.90;;;;;;5111577;28;20055;-62
2021/05/18 05:17:57;;;;;;;2.55;1.17;;;11.40;99.90;;;;;;5110245;28;20139;-62
2021/05/18 05:20:23;;;;;;;5.18;1.17;;;11.50;99.90;;;;;;5111041;28;20041;-61
2021/05/18 05:22:49;;;;;;;4.30;1.25;;;11.60;99.90;;;;;;5109963;28;20029;-60
2021/05/18 05:25:14;;;;;;;1.85;0.82;;;11.50;99.90;;;;;;5109225;28;20053;-61
2021/05/18 05:27:40;;;;;;;6.25;2.28;;;11.50;99.90;;;;;;5111404;28;20024;-60
2021/05/18 05:30:07;;;;;;;4.13;1.13;;;11.50;99.90;;;;;;5108918;28;20459;-61
2021/05/18 05:32:32;;;;;;;1.50;1.00;;;11.50;99.90;;;;;;5109667;28;20405;-62
2021/05/18 05:34:58;;;;;;;2.38;1.10;;;11.50;99.90;;;;;;5110247;28;20034;-61
2021/05/18 05:37:25;;;;;;;5.25;1.15;;;11.60;99.90;;;;;;5111132;28;20063;-62
2021/05/18 05:39:52;;;;;;;2.63;1.23;;;11.60;99.90;;;;;;5109559;28;20096;-62
2021/05/18 05:42:18;;;;;;;3.53;1.40;;;11.60;99.90;;;;;;5109224;28;20422;-63
2021/05/18 05:44:44;;;;;;;3.42;1.25;;;11.60;99.90;;;;;;5106477;28;20123;-62
2021/05/18 05:47:09;;;;;;;5.45;1.55;;;11.70;99.90;;;;;;5100936;28;20027;-61
2021/05/18 05:49:35;;;;;;;3.58;1.30;;;11.90;99.90;;;;;;5108678;28;20051;-61
2021/05/18 05:52:00;;;;;;;3.67;1.60;;;12.00;99.90;;;;;;5109552;28;20401;-61
2021/05/18 05:54:26;;;;;;;6.72;1.38;;;12.00;99.90;;;;;;5108286;28;20023;-61
2021/05/18 05:56:52;;;;;;;4.80;1.67;;;13.10;99.90;;;;;;5107514;28;20040;-60
2021/05/18 05:59:19;;;;;;;4.05;1.73;;;13.10;99.90;;;;;;5109120;28;20369;-61
2021/05/18 06:01:47;;;;;;;3.38;1.50;;;13.30;99.90;;;;;;5109286;28;20334;-62
2021/05/18 06:04:13;;;;;;;2.72;1.17;;;13.10;99.90;;;;;;5107931;28;20306;-63
2021/05/18 06:06:39;;;;;;;4.20;1.92;;;13.70;99.90;;;;;;5106715;28;20027;-61
2021/05/18 06:09:05;;;;;;;6.22;2.03;;;13.50;99.90;;;;;;5106444;28;20054;-61
2021/05/18 06:11:43;;;;;;;4.43;1.85;;;13.30;99.90;;;;;;5107041;28;20158;-63
2021/05/18 06:48:57;;;;;;;2.85;1.10;;;14.20;99.90;;;;;;5064902;28;20079;-65
2021/05/18 06:51:23;;;;;;;6.28;1.30;;;14.30;99.90;;;;;;5048607;28;20154;-65
2021/05/18 06:53:49;;;;;;;5.25;1.80;;;14.40;99.90;;;;;;5065392;28;20059;-62
2021/05/18 06:56:15;;;;;;;2.97;1.15;;;14.50;99.90;;;;;;5064747;28;20112;-65
2021/05/18 07:01:08;;;;;;;2.30;1.27;;;14.40;99.90;;;;;;5064804;28;20450;-68
2021/05/18 07:03:48;;;;;;;4.13;1.20;;;14.60;99.90;;;;;;5065166;28;20075;-64
2021/05/18 07:08:58;;;;;;;1.42;0.90;;;14.40;99.90;;;;;;5064540;28;20067;-63
2021/05/18 07:11:25;;;;;;;2.40;1.23;;;14.30;99.90;;;;;;5065257;28;20068;-64
2021/05/18 07:13:51;;;;;;;4.70;1.20;;;14.50;99.90;;;;;;5065327;28;20082;-62
2021/05/18 07:16:17;;;;;;;2.67;0.95;;;14.50;99.90;;;;;;5064455;28;20029;-62
2021/05/18 07:18:43;;;;;;;1.58;0.98;;;14.60;99.90;;;;;;5065495;28;20052;-67
2021/05/18 07:21:09;;;;;;;2.03;1.05;;;14.60;99.90;;;;;;5064362;28;20032;-62
2021/05/18 07:23:35;;;;;;;3.30;1.17;;;14.50;99.90;;;;;;5064604;28;20111;-61
2021/05/18 07:26:03;;;;;;;5.80;1.13;;;14.40;99.90;;;;;;5076286;28;20054;-60
2021/05/18 07:28:31;;;;;;;4.97;1.13;;;14.50;99.90;;;;;;5104583;28;20107;-61
2021/05/18 07:30:58;;;;;;;4.43;1.15;;;14.80;99.90;;;;;;5105914;28;20032;-65
2021/05/18 07:33:24;;;;;;;3.65;0.77;;;15.10;99.90;;;;;;5107923;28;20031;-63
2021/05/18 07:35:53;;;;;;;1.70;0.80;;;15.10;99.90;;;;;;5106310;28;20103;-61
2021/05/18 07:38:19;;;;;;;1.75;0.52;;;15.00;99.90;;;;;;5110418;28;20119;-62
2021/05/18 07:40:45;;;;;;;5.40;0.85;;;15.10;99.90;;;;;;5108620;28;20368;-62
2021/05/18 07:43:16;;;;;;;3.53;1.25;;;15.00;99.90;;;;;;5110997;28;20222;-63
2021/05/18 07:45:45;;;;;;;3.22;0.88;;;15.10;99.90;;;;;;5109659;28;20137;-63
2021/05/18 08:06:48;;;;;;;2.50;0.73;;;14.40;99.90;;;;;;5110758;28;20046;-61
2021/05/18 08:09:16;;;;;;;2.30;0.95;;;14.10;99.90;;;;;;5107734;28;20035;-62
2021/05/18 08:11:42;;;;;;;4.57;1.17;;;14.00;99.90;;;;;;5110630;28;20024;-62
2021/05/18 08:14:07;;;;;;;6.70;1.20;;;13.90;99.90;;;;;;5105031;28;20310;-61
2021/05/18 09:38:11;;;;;;;4.78;0.80;;;16.50;98.70;;;;;;5107895;28;20127;-64
2021/05/18 10:14:34;;;;;;;5.90;1.40;;;16.70;97.60;;;;;;5107932;28;20034;-63
2021/05/18 10:24:42;;;;;;;2.97;0.32;;;17.40;92.50;;;;;;5109475;28;20069;-64
2021/05/18 10:27:12;;;;;;;2.60;0.22;;;16.90;93.00;;;;;;5108616;28;20098;-63
2021/05/18 10:37:30;;;;;;;8.27;0.57;;;15.00;99.90;;;;;;5089150;28;20071;-63
2021/05/18 10:40:24;;;;;;;4.03;0.60;;;14.60;99.90;;;;;;5086631;28;20032;-65
2021/05/18 10:43:11;;;;;;;2.50;0.73;;;14.40;99.90;;;;;;5089505;28;20106;-63
2021/05/18 10:45:55;;;;;;;2.63;0.68;;;14.80;99.90;;;;;;5092361;28;20118;-65
2021/05/18 10:48:31;;;;;;;2.63;0.47;;;15.50;99.90;;;;;;5086600;28;20627;-63
2021/05/18 10:50:58;;;;;;;1.98;0.20;;;15.80;99.90;;;;;;5086836;28;20104;-74
2021/05/18 10:53:30;;;;;;;0.75;0.25;;;16.80;99.90;;;;;;5087519;28;20024;-63
2021/05/18 10:56:06;;;;;;;1.23;0.40;;;17.70;99.90;;;;;;5087743;28;20028;-75
2021/05/18 10:58:33;;;;;;;1.17;0.45;;;18.50;99.90;;;;;;5107140;28;20064;-64
2021/05/18 11:01:03;;;;;;;0.98;0.47;;;18.90;99.70;;;;;;5090291;28;20166;-68
2021/05/18 11:03:29;;;;;;;1.42;0.20;;;19.10;96.50;;;;;;5088273;28;20027;-63
2021/05/18 11:06:04;;;;;;;1.40;0.20;;;19.20;95.60;;;;;;5086112;28;20036;-75
2021/05/18 11:08:30;;;;;;;2.40;0.40;;;19.10;95.60;;;;;;5088067;28;20115;-62
2021/05/18 11:10:56;;;;;;;1.48;0.45;;;18.60;94.50;;;;;;5088173;28;20170;-75
2021/05/18 11:13:22;;;;;;;5.38;0.60;;;18.00;96.00;;;;;;5091540;28;20496;-64
2021/05/18 11:15:48;;;;;;;2.55;0.57;;;17.50;98.40;;;;;;5091511;28;20077;-64
2021/05/18 11:18:14;;;;;;;1.85;0.52;;;18.50;99.90;;;;;;5090271;28;20105;-65
2021/05/18 11:23:31;;;;;;;4.63;0.52;;;19.60;94.60;;;;;;5110849;27;20027;-66
2021/05/18 11:26:04;;;;;;;2.95;0.40;;;19.80;94.80;;;;;;5111806;28;20157;-73
2021/05/18 11:28:35;;;;;;;4.20;0.45;;;19.90;93.70;;;;;;5112130;28;20485;-62
2021/05/18 11:31:10;;;;;;;2.78;0.47;;;20.10;94.60;;;;;;5109884;28;20468;-64
2021/05/18 11:33:40;;;;;;;3.40;0.40;;;20.50;95.30;;;;;;5111321;28;20537;-64
2021/05/18 11:36:11;;;;;;;4.80;0.30;;;20.80;95.60;;;;;;5109373;28;20317;-64
2021/05/18 11:38:39;;;;;;;1.23;0.35;;;20.50;94.70;;;;;;5111925;28;20035;-66
2021/05/18 11:41:05;;;;;;;1.17;0.40;;;19.60;93.40;;;;;;5109845;28;20452;-70
2021/05/18 11:43:37;;;;;;;4.20;0.40;;;19.30;94.40;;;;;;5109672;28;20024;-64
2021/05/18 11:46:10;;;;;;;1.42;0.30;;;19.00;95.00;;;;;;5106105;28;20032;-66
2021/05/18 11:48:39;;;;;;;1.40;0.57;;;18.60;93.90;;;;;;5107260;28;20038;-65
2021/05/18 11:51:14;;;;;;;1.17;0.38;;;18.40;94.40;;;;;;5107640;28;20084;-68
2021/05/18 11:53:46;;;;;;;9.05;0.60;;;18.20;94.10;;;;;;5107714;28;20323;-65
2021/05/18 11:56:33;;;;;;;0.45;0.10;;;18.30;94.10;;;;;;5106803;28;20099;-65
2021/05/18 11:59:20;;;;;;;2.78;0.20;;;18.80;94.40;;;;;;5090592;28;20050;-72
2021/05/18 12:02:06;;;;;;;2.17;0.10;;;19.20;92.20;;;;;;5091487;28;20048;-64
2021/05/18 12:04:36;;;;;;;1.10;0.10;;;19.50;93.00;;;;;;5091256;28;20555;-67
2021/05/18 12:07:08;;;;;;;0.60;0.20;;;19.40;91.80;;;;;;5103213;28;20028;-65
2021/05/18 12:09:40;;;;;;;1.20;0.20;;;19.20;91.20;;;;;;5111677;28;20039;-63
2021/05/18 12:12:09;;;;;;;0.73;0.55;;;19.00;92.30;;;;;;5108762;28;20031;-65
2021/05/18 12:14:49;;;;;;;0.10;0.10;;;19.10;92.00;;;;;;5109885;28;20059;-63
2021/05/18 12:17:27;;;;;;;1.40;0.20;;;19.00;92.10;;;;;;5108379;28;20085;-64
2021/05/18 12:19:53;;;;;;;2.80;0.10;;;19.20;90.70;;;;;;5103941;28;20044;-65
2021/05/18 12:22:19;;;;;;;2.75;0.75;;;19.00;90.80;;;;;;5108153;28;20023;-64
2021/05/18 12:24:45;;;;;;;0.68;0.15;;;18.70;91.00;;;;;;5109678;28;20031;-64
2021/05/18 12:27:11;;;;;;;2.08;0.20;;;19.10;91.50;;;;;;5107811;28;20023;-66
2021/05/18 12:29:44;;;;;;;6.07;0.20;;;19.30;91.10;;;;;;5109562;28;20034;-64
2021/05/18 12:32:22;;;;;;;0.55;0.20;;;19.20;90.80;;;;;;5108741;28;20098;-66
2021/05/18 12:34:51;;;;;;;2.72;0.10;;;19.40;88.20;;;;;;5109341;28;20040;-64
2021/05/18 12:37:17;;;;;;;0.40;0.20;;;19.10;88.00;;;;;;5110252;28;20059;-64
2021/05/18 12:39:45;;;;;;;0.43;0.00;;;18.70;86.80;;;;;;5109746;28;20081;-64
2021/05/18 12:42:33;;;;;;;1.80;0.20;;;18.30;85.90;;;;;;5109403;28;20222;-64
2021/05/18 12:45:01;;;;;;;2.15;0.20;;;18.20;87.00;;;;;;5109427;28;20047;-71
2021/05/18 12:47:29;;;;;;;0.25;0.10;;;18.30;88.10;;;;;;5110287;28;20055;-65
2021/05/18 12:49:56;;;;;;;1.67;0.00;;;18.40;88.30;;;;;;5111090;28;20542;-64
2021/05/18 12:52:22;;;;;;;4.32;0.10;;;18.10;89.50;;;;;;5106690;28;20032;-69
2021/05/18 12:54:48;;;;;;;0.85;0.10;;;18.40;90.50;;;;;;5108454;28;20047;-65
2021/05/18 12:57:19;;;;;;;0.70;0.10;;;18.20;89.80;;;;;;5108103;28;20039;-65
2021/05/18 12:59:57;;;;;;;;;;;18.40;90.60;;;;;;5110074;28;20045;-64
2021/05/18 13:02:43;;;;;;;4.45;0.40;;;18.50;89.00;;;;;;5108811;28;19983;-72
2021/05/18 13:05:10;;;;;;;4.13;0.65;;;18.20;86.70;;;;;;5110104;28;20034;-71
2021/05/18 13:07:37;;;;;;;1.52;0.10;;;17.60;87.50;;;;;;5109923;28;20028;-70
2021/05/18 13:10:20;;;;;;;2.50;0.10;;;17.70;88.10;;;;;;5109927;28;20105;-69
2021/05/18 13:12:46;;;;;;;0.10;0.00;;;17.70;88.70;;;;;;5110782;28;20024;-70
2021/05/18 13:15:20;;;;;;;0.98;0.00;;;17.90;87.20;;;;;;5108666;27;20036;-70
2021/05/18 13:17:58;;;;;;;1.10;0.20;;;18.70;87.40;;;;;;5091568;28;20058;-70
2021/05/18 13:20:26;;;;;;;2.20;0.08;;;18.90;86.90;;;;;;5108403;28;20035;-69
2021/05/18 13:22:57;;;;;;;0.43;0.00;;;19.40;84.50;;;;;;5088922;28;20121;-72
2021/05/18 13:28:07;;;;;;;2.13;0.08;;;19.30;84.80;;;;;;5107807;28;19988;-64
2021/05/18 13:30:35;;;;;;;12.75;1.98;;;19.90;85.00;;;;;;5108386;28;20020;-64
2021/05/18 13:33:00;;;;;;;3.05;1.20;;;20.50;83.80;;;;;;5107570;28;20037;-64
2021/05/18 13:35:29;;;;;;;4.68;0.30;;;20.70;81.90;;;;;;5105870;28;20047;-64
2021/05/18 13:37:56;;;;;;;0.10;0.00;;;20.80;77.10;;;;;;5107630;28;20043;-64
2021/05/18 13:40:22;;;;;;;0.25;0.05;;;19.80;75.30;;;;;;5106256;28;20035;-66
2021/05/18 13:42:50;;;;;;;3.13;0.80;;;19.30;78.10;;;;;;5108053;28;20114;-66
2021/05/18 13:45:17;;;;;;;0.77;0.00;;;19.30;80.20;;;;;;5106177;28;20771;-62
2021/05/18 13:47:43;;;;;;;0.10;0.00;;;19.30;80.10;;;;;;5107294;28;20031;-64
2021/05/18 13:50:10;;;;;;;0.82;0.25;;;19.20;79.40;;;;;;5106718;28;20516;-64
2021/05/18 13:52:35;;;;;;;1.80;0.57;;;19.50;80.20;;;;;;5107984;28;20076;-64
2021/05/18 13:55:01;;;;;;;7.20;0.57;;;20.10;79.20;;;;;;5106031;28;20019;-67
2021/05/18 13:57:27;;;;;;;2.60;0.22;;;20.00;80.90;;;;;;5101065;28;20092;-67
2021/05/18 13:59:54;;;;;;;0.95;0.10;;;20.40;78.20;;;;;;5106327;28;20024;-63
2021/05/18 14:02:19;;;;;;;0.85;0.20;;;20.00;77.00;;;;;;5106403;28;20039;-63
2021/05/18 14:04:45;;;;;;;1.75;0.20;;;19.60;78.20;;;;;;5107890;28;20087;-62
2021/05/18 14:07:57;;;;;;;1.77;0.38;;;19.10;78.10;;;;;;5105515;28;20366;-63
2021/05/18 14:10:10;;;;;;;0.75;0.50;;;18.70;81.80;;;;;;5100540;28;20035;-62
2021/05/18 14:12:36;;;;;;;2.47;0.32;;;18.50;83.30;;;;;;5109780;28;20353;-64
2021/05/18 14:15:04;;;;;;;4.75;0.50;;;18.30;85.00;;;;;;5106726;28;20019;-72
2021/05/18 14:17:29;;;;;;;9.20;1.00;;;18.10;88.60;;;;;;5109331;28;20473;-62
2021/05/18 14:19:55;;;;;;;14.82;2.92;;;18.00;90.80;;;;;;5095977;28;20027;-63
2021/05/18 14:22:21;;;;;;;2.15;0.43;;;18.10;93.20;;;;;;5084264;28;20620;-62
2021/05/18 14:24:56;;;;;;;0.90;0.28;;;18.20;92.60;;;;;;5087587;28;20040;-62
2021/05/18 14:27:22;;;;;;;1.17;0.60;;;18.10;94.00;;;;;;5085689;28;20392;-65
2021/05/18 14:29:48;;;;;;;1.13;0.22;;;18.00;94.90;;;;;;5085569;28;20106;-64
2021/05/18 14:32:14;;;;;;;4.50;0.30;;;17.90;95.50;;;;;;5103201;28;20027;-64
2021/05/18 14:34:41;;;;;;;2.53;0.32;;;17.70;94.60;;;;;;5107955;28;20457;-67
2021/05/18 14:37:07;;;;;;;6.60;0.57;;;17.70;95.20;;;;;;5104875;28;20394;-62
2021/05/18 14:40:25;;;;;;;0.73;0.20;;;17.40;92.50;;;;;;5106750;28;20038;-64
2021/05/18 14:45:09;;;;;;;1.90;0.22;;;17.50;92.30;;;;;;5107057;28;20096;-64
2021/05/18 14:55:35;;;;;;;1.38;0.30;;;17.40;93.20;;;;;;5112684;28;20129;-64
2021/05/18 14:58:01;;;;;;;1.17;0.20;;;17.40;94.00;;;;;;5109929;28;20019;-71
2021/05/18 15:00:27;;;;;;;1.65;0.40;;;17.40;94.00;;;;;;5111430;28;20028;-63
2021/05/18 15:02:53;;;;;;;0.80;0.30;;;17.20;95.60;;;;;;5111827;28;20109;-65
2021/05/18 15:05:19;;;;;;;0.70;0.10;;;17.40;95.20;;;;;;5110818;28;20035;-63
2021/05/18 15:07:45;;;;;;;1.65;0.10;;;17.50;93.90;;;;;;5111934;28;20027;-62
2021/05/18 15:10:12;;;;;;;2.95;0.20;;;17.40;92.70;;;;;;5111602;28;20038;-47
2021/05/18 15:12:38;;;;;;;0.90;0.15;;;17.10;94.70;;;;;;5112360;28;20051;-60
2021/05/18 15:15:05;;;;;;;2.28;0.20;;;17.30;94.10;;;;;;5110509;28;20102;-56
2021/05/18 15:17:30;;;;;;;2.85;0.13;;;17.90;95.50;;;;;;5111594;28;20056;-48
2021/05/18 15:19:59;;;;;;;5.43;0.30;;;18.20;93.90;;;;;;5113066;28;20035;-53
2021/05/18 15:22:25;;;;;;;3.90;0.35;;;18.80;93.40;;;;;;5110777;28;20046;-48
2021/05/18 15:24:51;;;;;;;1.05;0.20;;;18.80;91.60;;;;;;5111359;28;20092;-49
2021/05/18 15:27:16;;;;;;;1.00;0.13;;;19.10;91.80;;;;;;5111110;28;20027;-49
2021/05/18 15:29:42;;;;;;;0.43;0.20;;;19.40;91.10;;;;;;5111854;28;20407;-47
2021/05/18 15:32:08;;;;;;;1.08;0.10;;;19.30;88.70;;;;;;5110073;28;20050;-49
2021/05/18 15:34:37;;;;;;;2.78;0.20;;;19.00;90.20;;;;;;5110050;28;20028;-48
2021/05/18 15:37:04;;;;;;;1.38;0.10;;;18.90;88.00;;;;;;5109808;28;20034;-56
2021/05/18 15:39:29;;;;;;;1.15;0.10;;;18.50;90.90;;;;;;5109947;28;20031;-48
2021/05/18 15:41:55;;;;;;;4.85;0.10;;;18.70;91.30;;;;;;5111395;28;20027;-50
2021/05/18 15:44:22;;;;;;;1.17;0.10;;;18.90;90.70;;;;;;5110560;28;20272;-49
2021/05/18 15:46:48;;;;;;;0.80;0.00;;;19.20;90.60;;;;;;5111882;28;20063;-48
2021/05/18 15:49:14;;;;;;;0.55;0.10;;;19.40;88.80;;;;;;5110331;28;20144;-53
2021/05/18 15:51:40;;;;;;;2.13;0.32;;;19.50;88.70;;;;;;5110758;28;20024;-48
2021/05/18 15:54:06;;;;;;;0.65;0.00;;;19.40;87.20;;;;;;5109352;28;20023;-49
2021/05/18 15:56:35;;;;;;;3.03;0.35;;;19.50;88.00;;;;;;5110962;28;20104;-48
2021/05/18 15:59:03;;;;;;;1.88;0.10;;;19.50;83.60;;;;;;5108257;28;20115;-61
2021/05/18 16:01:28;;;;;;;0.45;0.03;;;19.40;86.50;;;;;;5110084;28;20444;-49
2021/05/18 16:03:54;;;;;;;0.57;0.10;;;19.40;82.90;;;;;;5110266;27;20436;-47
2021/05/18 16:06:22;;;;;;;2.45;0.47;;;19.10;82.70;;;;;;5106704;28;20041;-52
2021/05/18 16:11:14;;;;;;;0.40;0.10;;;19.10;86.50;;;;;;5109714;28;20214;-48
2021/05/18 16:13:41;;;;;;;0.50;0.20;;;19.10;87.00;;;;;;5107855;28;20102;-48
2021/05/18 16:16:13;;;;;;;0.50;0.10;;;19.10;85.50;;;;;;5089120;28;20074;-53
2021/05/18 16:18:39;;;;;;;0.30;0.00;;;18.60;85.50;;;;;;5088182;28;20154;-48
2021/05/18 16:21:06;;;;;;;0.43;0.20;;;18.50;87.20;;;;;;5086901;28;20426;-61
2021/05/18 16:23:33;;;;;;;0.47;0.13;;;18.50;88.90;;;;;;5095420;28;20024;-55
2021/05/18 16:25:59;;;;;;;2.67;0.47;;;18.50;88.40;;;;;;5108817;28;20413;-48
2021/05/18 16:28:25;;;;;;;0.40;0.20;;;18.50;89.90;;;;;;5106792;28;20031;-49
2021/05/18 16:30:52;;;;;;;0.50;0.20;;;18.60;89.00;;;;;;5108111;28;20028;-48
2021/05/18 16:33:18;;;;;;;1.95;0.20;;;18.50;89.10;;;;;;5107722;28;20039;-57
2021/05/18 16:35:45;;;;;;;1.23;0.52;;;18.30;90.10;;;;;;5110106;28;20062;-47
2021/05/18 16:38:11;;;;;;;0.88;0.17;;;18.20;88.40;;;;;;5107110;28;20036;-49
2021/05/18 16:40:36;;;;;;;0.60;0.35;;;18.10;89.50;;;;;;5108567;28;20420;-51
2021/05/18 16:43:02;;;;;;;0.30;0.10;;;18.10;88.30;;;;;;5108135;28;20030;-63
2021/05/18 16:45:28;;;;;;;1.20;0.40;;;18.00;89.00;;;;;;5110840;28;20034;-49
2021/05/18 16:47:54;;;;;;;2.00;0.10;;;18.00;90.40;;;;;;5107211;28;20035;-53
2021/05/18 16:50:20;;;;;;;0.70;0.10;;;18.10;90.60;;;;;;5105965;28;20080;-50
2021/05/18 16:52:46;;;;;;;0.63;0.10;;;18.00;90.70;;;;;;5109955;28;20030;-48
2021/05/18 16:55:13;;;;;;;0.85;0.25;;;17.90;90.80;;;;;;5109017;28;20023;-49
2021/05/18 16:57:39;;;;;;;0.20;0.10;;;17.70;91.00;;;;;;5109249;28;20031;-62
2021/05/18 17:00:07;;;;;;;0.82;0.57;;;17.50;90.60;;;;;;5109679;28;20068;-69
2021/05/18 17:02:33;;;;;;;0.22;0.15;;;17.30;91.00;;;;;;5108537;28;20016;-64
2021/05/18 17:04:59;;;;;;;3.53;0.10;;;17.00;91.70;;;;;;5107265;28;20030;-64
2021/05/18 17:07:26;;;;;;;0.32;0.13;;;16.90;91.90;;;;;;5107675;28;20185;-64
2021/05/18 17:09:53;;;;;;;0.20;0.10;;;16.60;92.60;;;;;;5109018;28;20056;-63
2021/05/18 17:12:19;;;;;;;0.47;0.03;;;16.50;93.20;;;;;;5107059;28;20444;-62
2021/05/18 17:14:50;;;;;;;0.75;0.10;;;16.50;93.50;;;;;;5108202;28;20023;-64
2021/05/18 17:17:16;;;;;;;3.65;0.65;;;16.30;93.90;;;;;;5107088;28;20056;-63
2021/05/18 17:19:43;;;;;;;0.32;0.15;;;16.30;94.20;;;;;;5108257;28;20032;-69
2021/05/18 17:22:18;;;;;;;0.30;0.20;;;16.30;94.00;;;;;;5107590;28;20520;-66
2021/05/18 17:24:44;;;;;;;0.40;0.30;;;16.30;94.30;;;;;;5108084;28;20148;-66
2021/05/18 17:27:10;;;;;;;0.95;0.20;;;16.40;94.70;;;;;;5106761;28;20073;-63
2021/05/18 17:29:37;;;;;;;1.63;0.47;;;16.20;95.20;;;;;;5108043;28;20039;-63
2021/05/18 17:32:04;;;;;;;0.57;0.15;;;16.10;95.10;;;;;;5107739;28;20035;-64
2021/05/18 17:34:32;;;;;;;0.82;0.47;;;16.20;94.60;;;;;;5107489;28;20023;-63
2021/05/18 17:36:57;;;;;;;5.43;1.02;;;16.10;94.80;;;;;;5107668;28;20118;-64
2021/05/18 17:39:26;;;;;;;0.68;0.15;;;16.20;95.20;;;;;;5107034;28;20115;-64
2021/05/18 17:41:52;;;;;;;1.00;0.30;;;16.20;95.40;;;;;;5109910;28;20393;-63
2021/05/18 17:44:18;;;;;;;1.50;0.43;;;16.10;95.80;;;;;;5108777;28;20038;-64
2021/05/18 17:46:44;;;;;;;3.80;0.43;;;16.20;95.90;;;;;;5107930;28;20087;-63
2021/05/18 17:49:14;;;;;;;2.90;0.57;;;16.30;95.70;;;;;;5108561;28;20546;-64
2021/05/18 17:51:40;;;;;;;1.20;0.30;;;16.10;95.30;;;;;;5107792;28;20055;-68
2021/05/18 17:54:06;;;;;;;1.23;0.30;;;16.20;95.30;;;;;;5106848;28;20051;-71
2021/05/18 17:56:32;;;;;;;1.20;0.43;;;16.20;97.10;;;;;;5107692;28;20054;-64
2021/05/18 17:58:58;;;;;;;0.55;0.28;;;16.10;97.80;;;;;;5107772;28;20386;-64